sensor_id;sensor_type;location;lat;lon;timestamp;pressure;altitude;pressure_sealevel;temperature;humidity
62600;BME280;48671;48.922;2.346;2023-01-27T01:24:46;102197.47;;;5.66;73.38
62600;BME280;48671;48.922;2.346;2023-01-27T01:27:11;102211.28;;;5.69;73.86
62600;BME280;48671;48.922;2.346;2023-01-27T01:29:37;102187.13;;;5.64;73.68
62600;BME280;48671;48.922;2.346;2023-01-27T01:32:03;102176.78;;;5.58;73.36
62600;BME280;48671;48.922;2.346;2023-01-27T01:34:28;102191.44;;;5.65;73.51
62600;BME280;48671;48.922;2.346;2023-01-27T01:36:53;102189.72;;;5.66;73.29
62600;BME280;48671;48.922;2.346;2023-01-27T01:39:19;102188.00;;;5.64;73.27
62600;BME280;48671;48.922;2.346;2023-01-27T01:41:44;102184.56;;;5.64;73.28
62600;BME280;48671;48.922;2.346;2023-01-27T01:44:26;102206.13;;;5.72;72.75
62600;BME280;48671;48.922;2.346;2023-01-27T01:46:52;102190.56;;;5.64;73.23
62600;BME280;48671;48.922;2.346;2023-01-27T01:49:21;102191.44;;;5.63;72.98
62600;BME280;48671;48.922;2.346;2023-01-27T01:51:54;102180.25;;;5.60;73.07
62600;BME280;48671;48.922;2.346;2023-01-27T01:54:32;102196.66;;;5.70;73.12
62600;BME280;48671;48.922;2.346;2023-01-27T01:59:43;102187.13;;;5.64;73.39
62600;BME280;48671;48.922;2.346;2023-01-27T02:02:13;102188.91;;;5.70;72.98
62600;BME280;48671;48.922;2.346;2023-01-27T02:04:47;102175.94;;;5.62;73.20
62600;BME280;48671;48.922;2.346;2023-01-27T02:07:20;102184.56;;;5.64;72.98
62600;BME280;48671;48.922;2.346;2023-01-27T02:09:48;102194.06;;;5.70;73.25
62600;BME280;48671;48.922;2.346;2023-01-27T02:12:13;102167.31;;;5.60;72.93
62600;BME280;48671;48.922;2.346;2023-01-27T02:14:40;102183.69;;;5.63;73.22
62600;BME280;48671;48.922;2.346;2023-01-27T02:17:06;102175.94;;;5.62;72.80
62600;BME280;48671;48.922;2.346;2023-01-27T02:22:54;102178.53;;;5.65;72.87
62600;BME280;48671;48.922;2.346;2023-01-27T02:27:58;102169.88;;;5.58;72.59
62600;BME280;48671;48.922;2.346;2023-01-27T02:30:23;102161.28;;;5.56;72.67
62600;BME280;48671;48.922;2.346;2023-01-27T02:32:48;102166.44;;;5.53;72.67
62600;BME280;48671;48.922;2.346;2023-01-27T02:35:28;102165.59;;;5.57;72.28
62600;BME280;48671;48.922;2.346;2023-01-27T02:37:56;102167.31;;;5.57;72.60
62600;BME280;48671;48.922;2.346;2023-01-27T02:40:22;102164.75;;;5.60;72.89
62600;BME280;48671;48.922;2.346;2023-01-27T02:42:50;102154.34;;;5.52;72.84
62600;BME280;48671;48.922;2.346;2023-01-27T02:45:18;102152.66;;;5.59;72.81
62600;BME280;48671;48.922;2.346;2023-01-27T02:47:43;102167.31;;;5.60;72.29
62600;BME280;48671;48.922;2.346;2023-01-27T02:50:09;102146.63;;;5.51;72.55
62600;BME280;48671;48.922;2.346;2023-01-27T02:52:35;102154.38;;;5.55;72.26
62600;BME280;48671;48.922;2.346;2023-01-27T02:55:00;102155.22;;;5.50;72.28
62600;BME280;48671;48.922;2.346;2023-01-27T02:57:25;102158.69;;;5.53;72.75
62600;BME280;48671;48.922;2.346;2023-01-27T02:59:51;102173.31;;;5.59;72.52
62600;BME280;48671;48.922;2.346;2023-01-27T03:02:16;102159.56;;;5.57;72.59
62600;BME280;48671;48.922;2.346;2023-01-27T03:04:47;102151.78;;;5.51;72.69
62600;BME280;48671;48.922;2.346;2023-01-27T03:07:12;102149.22;;;5.54;72.79
62600;BME280;48671;48.922;2.346;2023-01-27T03:09:37;102148.34;;;5.52;72.53
62600;BME280;48671;48.922;2.346;2023-01-27T03:12:03;102147.53;;;5.56;72.59
62600;BME280;48671;48.922;2.346;2023-01-27T03:14:43;102163.91;;;5.64;72.22
62600;BME280;48671;48.922;2.346;2023-01-27T03:17:27;102149.22;;;5.54;72.65
62600;BME280;48671;48.922;2.346;2023-01-27T03:20:11;102160.44;;;5.65;72.72
62600;BME280;48671;48.922;2.346;2023-01-27T03:22:37;102137.19;;;5.53;72.21
62600;BME280;48671;48.922;2.346;2023-01-27T03:25:02;102157.03;;;5.66;72.18
62600;BME280;48671;48.922;2.346;2023-01-27T03:27:28;102150.94;;;5.58;71.91
62600;BME280;48671;48.922;2.346;2023-01-27T03:29:53;102153.53;;;5.56;72.36
62600;BME280;48671;48.922;2.346;2023-01-27T03:32:27;102157.00;;;5.61;72.30
62600;BME280;48671;48.922;2.346;2023-01-27T03:34:53;102143.19;;;5.53;71.90
62600;BME280;48671;48.922;2.346;2023-01-27T03:37:22;102170.78;;;5.63;71.91
62600;BME280;48671;48.922;2.346;2023-01-27T03:40:08;102155.25;;;5.57;71.75
62600;BME280;48671;48.922;2.346;2023-01-27T03:42:52;102154.44;;;5.63;72.09
62600;BME280;48671;48.922;2.346;2023-01-27T03:45:36;102157.84;;;5.60;71.77
62600;BME280;48671;48.922;2.346;2023-01-27T03:48:21;102160.44;;;5.65;71.91
62600;BME280;48671;48.922;2.346;2023-01-27T03:50:46;102151.81;;;5.61;71.93
62600;BME280;48671;48.922;2.346;2023-01-27T03:53:20;102160.44;;;5.65;71.83
62600;BME280;48671;48.922;2.346;2023-01-27T03:55:45;102163.09;;;5.73;71.51
62600;BME280;48671;48.922;2.346;2023-01-27T03:58:26;102144.94;;;5.62;71.79
62600;BME280;48671;48.922;2.346;2023-01-27T04:00:54;102160.47;;;5.71;71.72
62600;BME280;48671;48.922;2.346;2023-01-27T04:03:22;102138.06;;;5.61;71.93
62600;BME280;48671;48.922;2.346;2023-01-27T04:06:12;102147.56;;;5.71;71.79
62600;BME280;48671;48.922;2.346;2023-01-27T04:08:57;102147.59;;;5.70;71.30
62600;BME280;48671;48.922;2.346;2023-01-27T04:11:23;102147.56;;;5.67;71.63
62600;BME280;48671;48.922;2.346;2023-01-27T04:14:08;102144.97;;;5.68;71.27
62600;BME280;48671;48.922;2.346;2023-01-27T04:16:35;102147.53;;;5.65;71.57
62600;BME280;48671;48.922;2.346;2023-01-27T04:19:05;102143.25;;;5.62;71.26
62600;BME280;48671;48.922;2.346;2023-01-27T04:21:32;102146.75;;;5.72;71.51
62600;BME280;48671;48.922;2.346;2023-01-27T04:23:58;102149.31;;;5.74;71.44
62600;BME280;48671;48.922;2.346;2023-01-27T04:26:23;102151.91;;;5.72;71.08
62600;BME280;48671;48.922;2.346;2023-01-27T04:28:49;102139.81;;;5.67;71.19
62600;BME280;48671;48.922;2.346;2023-01-27T04:31:15;102130.31;;;5.61;71.43
62600;BME280;48671;48.922;2.346;2023-01-27T04:33:42;102136.38;;;5.66;71.15
62600;BME280;48671;48.922;2.346;2023-01-27T04:36:08;102126.88;;;5.60;71.47
62600;BME280;48671;48.922;2.346;2023-01-27T04:38:33;102137.25;;;5.67;71.02
62600;BME280;48671;48.922;2.346;2023-01-27T04:40:59;102138.94;;;5.63;70.77
62600;BME280;48671;48.922;2.346;2023-01-27T04:43:24;102128.63;;;5.63;71.22
62600;BME280;48671;48.922;2.346;2023-01-27T04:45:50;102125.16;;;5.61;71.27
62600;BME280;48671;48.922;2.346;2023-01-27T04:48:15;102132.94;;;5.70;71.32
62600;BME280;48671;48.922;2.346;2023-01-27T04:50:41;102133.81;;;5.71;70.74
62600;BME280;48671;48.922;2.346;2023-01-27T04:53:06;102147.59;;;5.74;70.91
62600;BME280;48671;48.922;2.346;2023-01-27T04:55:31;102127.75;;;5.67;71.05
62600;BME280;48671;48.922;2.346;2023-01-27T04:57:57;102127.75;;;5.67;70.47
62600;BME280;48671;48.922;2.346;2023-01-27T05:00:22;102139.81;;;5.71;71.13
62600;BME280;48671;48.922;2.346;2023-01-27T05:02:47;102118.28;;;5.63;70.61
62600;BME280;48671;48.922;2.346;2023-01-27T05:05:13;102135.53;;;5.75;70.53
62600;BME280;48671;48.922;2.346;2023-01-27T05:07:38;102132.97;;;5.76;70.80
62600;BME280;48671;48.922;2.346;2023-01-27T05:10:05;102127.75;;;5.67;70.72
62600;BME280;48671;48.922;2.346;2023-01-27T05:12:31;102128.63;;;5.68;70.23
62600;BME280;48671;48.922;2.346;2023-01-27T05:14:56;102128.66;;;5.72;70.51
62600;BME280;48671;48.922;2.346;2023-01-27T05:17:22;102120.00;;;5.66;70.53
62600;BME280;48671;48.922;2.346;2023-01-27T05:19:47;102113.97;;;5.60;70.09
62600;BME280;48671;48.922;2.346;2023-01-27T05:22:13;102116.53;;;5.62;70.22
62600;BME280;48671;48.922;2.346;2023-01-27T05:24:38;102113.97;;;5.62;70.31
62600;BME280;48671;48.922;2.346;2023-01-27T05:27:03;102112.25;;;5.59;70.30
62600;BME280;48671;48.922;2.346;2023-01-27T05:29:29;102134.66;;;5.71;70.87
62600;BME280;48671;48.922;2.346;2023-01-27T05:31:54;102132.06;;;5.67;70.61
62600;BME280;48671;48.922;2.346;2023-01-27T05:34:20;102145.84;;;5.75;70.59
62600;BME280;48671;48.922;2.346;2023-01-27T05:36:46;102121.72;;;5.65;70.24
62600;BME280;48671;48.922;2.346;2023-01-27T05:39:11;102130.34;;;5.69;70.65
62600;BME280;48671;48.922;2.346;2023-01-27T05:41:37;102137.28;;;5.76;70.46
62600;BME280;48671;48.922;2.346;2023-01-27T05:44:03;102126.06;;;5.72;69.86
62600;BME280;48671;48.922;2.346;2023-01-27T05:46:31;102116.53;;;5.62;70.15
62600;BME280;48671;48.922;2.346;2023-01-27T05:49:01;102123.50;;;5.72;70.45
62600;BME280;48671;48.922;2.346;2023-01-27T05:51:30;102141.56;;;5.77;69.85
62600;BME280;48671;48.922;2.346;2023-01-27T05:53:58;102113.13;;;5.63;70.31
62600;BME280;48671;48.922;2.346;2023-01-27T05:56:23;102126.91;;;5.70;70.37
62600;BME280;48671;48.922;2.346;2023-01-27T05:58:52;102124.31;;;5.68;70.09
62600;BME280;48671;48.922;2.346;2023-01-27T06:01:20;102123.47;;;5.66;69.77
62600;BME280;48671;48.922;2.346;2023-01-27T06:03:48;102124.31;;;5.67;70.03
62600;BME280;48671;48.922;2.346;2023-01-27T06:06:16;102118.28;;;5.68;69.82
62600;BME280;48671;48.922;2.346;2023-01-27T06:08:45;102115.72;;;5.68;69.64
62600;BME280;48671;48.922;2.346;2023-01-27T06:11:14;102133.81;;;5.78;69.87
62600;BME280;48671;48.922;2.346;2023-01-27T06:13:40;102122.59;;;5.69;69.07
62600;BME280;48671;48.922;2.346;2023-01-27T06:16:08;102136.41;;;5.81;69.46
62600;BME280;48671;48.922;2.346;2023-01-27T06:18:34;102136.44;;;5.80;69.37
62600;BME280;48671;48.922;2.346;2023-01-27T06:21:04;102132.13;;;5.79;68.85
62600;BME280;48671;48.922;2.346;2023-01-27T06:23:30;102132.09;;;5.77;69.45
62600;BME280;48671;48.922;2.346;2023-01-27T06:26:03;102120.03;;;5.72;69.42
62600;BME280;48671;48.922;2.346;2023-01-27T06:28:29;102130.38;;;5.78;69.29
62600;BME280;48671;48.922;2.346;2023-01-27T06:30:55;102142.44;;;5.85;69.42
62600;BME280;48671;48.922;2.346;2023-01-27T06:33:28;102137.28;;;5.82;68.87
62600;BME280;48671;48.922;2.346;2023-01-27T06:36:08;102126.09;;;5.77;69.19
62600;BME280;48671;48.922;2.346;2023-01-27T06:38:34;102132.97;;;5.76;68.76
62600;BME280;48671;48.922;2.346;2023-01-27T06:41:00;102126.94;;;5.82;68.81
62600;BME280;48671;48.922;2.346;2023-01-27T06:43:26;102139.88;;;5.83;68.61
62600;BME280;48671;48.922;2.346;2023-01-27T06:45:52;102141.59;;;5.83;68.35
62600;BME280;48671;48.922;2.346;2023-01-27T06:48:18;102139.88;;;5.80;68.90
62600;BME280;48671;48.922;2.346;2023-01-27T06:50:43;102139.88;;;5.85;69.01
62600;BME280;48671;48.922;2.346;2023-01-27T06:53:09;102145.94;;;5.89;68.58
62600;BME280;48671;48.922;2.346;2023-01-27T06:55:35;102123.47;;;5.75;68.74
62600;BME280;48671;48.922;2.346;2023-01-27T06:58:09;102132.09;;;5.77;68.46
62600;BME280;48671;48.922;2.346;2023-01-27T07:00:36;102142.44;;;5.80;68.62
62600;BME280;48671;48.922;2.346;2023-01-27T07:03:02;102143.31;;;5.79;68.96
62600;BME280;48671;48.922;2.346;2023-01-27T07:05:28;102150.19;;;5.85;69.04
62600;BME280;48671;48.922;2.346;2023-01-27T07:07:54;102155.38;;;5.88;69.07
62600;BME280;48671;48.922;2.346;2023-01-27T07:10:19;102151.06;;;5.79;68.48
62600;BME280;48671;48.922;2.346;2023-01-27T07:12:45;102158.81;;;5.79;68.40
62600;BME280;48671;48.922;2.346;2023-01-27T07:15:11;102157.94;;;5.85;68.22
62600;BME280;48671;48.922;2.346;2023-01-27T07:17:37;102173.47;;;5.91;68.38
62600;BME280;48671;48.922;2.346;2023-01-27T07:20:04;102151.91;;;5.80;68.01
62600;BME280;48671;48.922;2.346;2023-01-27T07:22:29;102170.03;;;5.89;68.36
62600;BME280;48671;48.922;2.346;2023-01-27T07:24:55;102179.56;;;5.95;68.20
62600;BME280;48671;48.922;2.346;2023-01-27T07:27:24;102176.91;;;5.92;68.16
62600;BME280;48671;48.922;2.346;2023-01-27T07:29:49;102174.34;;;5.90;68.57
62600;BME280;48671;48.922;2.346;2023-01-27T07:32:15;102176.06;;;5.90;68.06
62600;BME280;48671;48.922;2.346;2023-01-27T07:34:41;102176.91;;;5.87;68.11
62600;BME280;48671;48.922;2.346;2023-01-27T07:37:06;102170.91;;;5.91;67.90
62600;BME280;48671;48.922;2.346;2023-01-27T07:39:31;102177.84;;;5.97;68.22
62600;BME280;48671;48.922;2.346;2023-01-27T07:41:58;102178.69;;;5.94;68.53
62600;BME280;48671;48.922;2.346;2023-01-27T07:44:26;102176.06;;;5.90;68.52
62600;BME280;48671;48.922;2.346;2023-01-27T07:46:51;102189.88;;;5.95;68.88
62600;BME280;48671;48.922;2.346;2023-01-27T07:49:16;102183.81;;;5.91;68.63
62600;BME280;48671;48.922;2.346;2023-01-27T07:51:42;102189.03;;;5.94;68.22
62600;BME280;48671;48.922;2.346;2023-01-27T07:54:07;102205.44;;;6.02;68.42
62600;BME280;48671;48.922;2.346;2023-01-27T07:56:32;102200.28;;;6.02;68.60
62600;BME280;48671;48.922;2.346;2023-01-27T07:59:00;102187.31;;;5.96;68.84
62600;BME280;48671;48.922;2.346;2023-01-27T08:01:26;102189.91;;;5.99;68.24
62600;BME280;48671;48.922;2.346;2023-01-27T08:03:51;102174.34;;;5.90;67.85
62600;BME280;48671;48.922;2.346;2023-01-27T08:06:16;102190.75;;;5.94;67.40
62600;BME280;48671;48.922;2.346;2023-01-27T08:08:42;102194.22;;;5.96;67.47
62600;BME280;48671;48.922;2.346;2023-01-27T08:11:11;102204.56;;;5.96;67.12
62600;BME280;48671;48.922;2.346;2023-01-27T08:13:36;102197.56;;;5.87;67.28
62600;BME280;48671;48.922;2.346;2023-01-27T08:16:04;102195.88;;;5.86;67.23
62600;BME280;48671;48.922;2.346;2023-01-27T08:18:35;102205.34;;;5.92;67.28
62600;BME280;48671;48.922;2.346;2023-01-27T08:21:03;102196.72;;;5.91;67.77
62600;BME280;48671;48.922;2.346;2023-01-27T08:23:29;102204.47;;;5.91;67.43
62600;BME280;48671;48.922;2.346;2023-01-27T08:25:57;102210.56;;;5.95;68.06
62600;BME280;48671;48.922;2.346;2023-01-27T08:28:23;102209.69;;;5.94;67.82
62600;BME280;48671;48.922;2.346;2023-01-27T08:30:50;102195.84;;;5.87;67.92
62600;BME280;48671;48.922;2.346;2023-01-27T08:33:19;102202.75;;;5.92;67.55
62600;BME280;48671;48.922;2.346;2023-01-27T08:35:45;102207.13;;;5.97;67.78
62600;BME280;48671;48.922;2.346;2023-01-27T08:38:12;102205.31;;;5.87;67.90
62600;BME280;48671;48.922;2.346;2023-01-27T08:40:41;102218.25;;;5.92;67.74
62600;BME280;48671;48.922;2.346;2023-01-27T08:43:07;102202.75;;;5.85;67.51
62600;BME280;48671;48.922;2.346;2023-01-27T08:45:34;102214.78;;;5.88;67.27
62600;BME280;48671;48.922;2.346;2023-01-27T08:48:00;102221.69;;;5.87;67.62
62600;BME280;48671;48.922;2.346;2023-01-27T08:50:26;102239.88;;;6.00;67.27
62600;BME280;48671;48.922;2.346;2023-01-27T08:52:52;102222.56;;;5.91;67.46
62600;BME280;48671;48.922;2.346;2023-01-27T08:55:17;102212.22;;;5.88;67.49
62600;BME280;48671;48.922;2.346;2023-01-27T08:57:46;102231.25;;;5.99;67.41
62600;BME280;48671;48.922;2.346;2023-01-27T09:00:11;102234.69;;;5.97;67.17
62600;BME280;48671;48.922;2.346;2023-01-27T09:02:37;102232.97;;;5.97;66.85
62600;BME280;48671;48.922;2.346;2023-01-27T09:05:03;102250.19;;;6.01;67.30
62600;BME280;48671;48.922;2.346;2023-01-27T09:07:28;102239.78;;;5.91;66.69
62600;BME280;48671;48.922;2.346;2023-01-27T09:10:01;102246.72;;;5.98;67.03
62600;BME280;48671;48.922;2.346;2023-01-27T09:12:30;102229.44;;;5.86;66.54
62600;BME280;48671;48.922;2.346;2023-01-27T09:14:56;102257.94;;;6.01;66.47
62600;BME280;48671;48.922;2.346;2023-01-27T09:17:23;102241.56;;;5.93;66.16
62600;BME280;48671;48.922;2.346;2023-01-27T09:19:48;102233.81;;;5.93;66.30
62600;BME280;48671;48.922;2.346;2023-01-27T09:22:14;102239.84;;;5.94;66.11
62600;BME280;48671;48.922;2.346;2023-01-27T09:24:39;102249.31;;;5.98;66.34
62600;BME280;48671;48.922;2.346;2023-01-27T09:27:04;102245.91;;;5.99;66.36
62600;BME280;48671;48.922;2.346;2023-01-27T09:29:30;102238.97;;;5.93;65.91
62600;BME280;48671;48.922;2.346;2023-01-27T09:31:56;102241.50;;;5.92;65.67
62600;BME280;48671;48.922;2.346;2023-01-27T09:34:21;102238.94;;;5.90;64.79
62600;BME280;48671;48.922;2.346;2023-01-27T09:36:52;102238.91;;;5.85;65.87
62600;BME280;48671;48.922;2.346;2023-01-27T09:39:19;102238.03;;;5.85;65.03
62600;BME280;48671;48.922;2.346;2023-01-27T09:48:05;102267.41;;;5.96;65.40
62600;BME280;48671;48.922;2.346;2023-01-27T09:53:04;102275.13;;;5.93;64.65
62600;BME280;48671;48.922;2.346;2023-01-27T09:56:03;102274.22;;;5.90;64.54
62600;BME280;48671;48.922;2.346;2023-01-27T09:58:55;102274.19;;;5.85;64.59
62600;BME280;48671;48.922;2.346;2023-01-27T10:06:51;102273.22;;;5.68;64.50
62600;BME280;48671;48.922;2.346;2023-01-27T10:12:31;102276.72;;;5.77;64.60
62600;BME280;48671;48.922;2.346;2023-01-27T10:15:14;102281.06;;;5.80;64.79
62600;BME280;48671;48.922;2.346;2023-01-27T10:18:00;102275.06;;;5.87;64.86
62600;BME280;48671;48.922;2.346;2023-01-27T10:20:38;102269.88;;;5.84;65.08
62600;BME280;48671;48.922;2.346;2023-01-27T10:26:48;102285.41;;;5.92;64.05
62600;BME280;48671;48.922;2.346;2023-01-27T10:29:33;102262.97;;;5.81;65.30
62600;BME280;48671;48.922;2.346;2023-01-27T10:32:41;102282.84;;;5.89;64.46
62600;BME280;48671;48.922;2.346;2023-01-27T10:35:26;102286.25;;;5.84;64.70
62600;BME280;48671;48.922;2.346;2023-01-27T10:49:10;102275.00;;;5.73;64.97
62600;BME280;48671;48.922;2.346;2023-01-27T10:51:42;102270.66;;;5.71;64.76
62600;BME280;48671;48.922;2.346;2023-01-27T10:54:16;102274.09;;;5.68;64.71
62600;BME280;48671;48.922;2.346;2023-01-27T10:56:55;102278.47;;;5.77;64.68
62600;BME280;48671;48.922;2.346;2023-01-27T10:59:28;102275.84;;;5.74;64.86
62600;BME280;48671;48.922;2.346;2023-01-27T11:09:36;102281.84;;;5.67;64.45
62600;BME280;48671;48.922;2.346;2023-01-27T11:12:09;102272.34;;;5.62;64.77
62600;BME280;48671;48.922;2.346;2023-01-27T11:14:51;102270.59;;;5.60;64.63
62600;BME280;48671;48.922;2.346;2023-01-27T11:22:23;102269.81;;;5.72;64.92
62600;BME280;48671;48.922;2.346;2023-01-27T11:25:03;102254.31;;;5.70;65.33
62600;BME280;48671;48.922;2.346;2023-01-27T11:33:41;102252.69;;;5.86;64.76
62600;BME280;48671;48.922;2.346;2023-01-27T11:36:11;102269.13;;;5.97;64.71
62600;BME280;48671;48.922;2.346;2023-01-27T11:38:36;102256.19;;;5.94;64.73
62600;BME280;48671;48.922;2.346;2023-01-27T11:41:01;102237.19;;;5.91;64.70
62600;BME280;48671;48.922;2.346;2023-01-27T11:43:28;102244.16;;;5.93;64.96
62600;BME280;48671;48.922;2.346;2023-01-27T11:45:58;102237.22;;;5.92;64.91
62600;BME280;48671;48.922;2.346;2023-01-27T11:48:40;102246.81;;;6.08;65.26
62600;BME280;48671;48.922;2.346;2023-01-27T11:51:20;102234.72;;;6.03;65.08
62600;BME280;48671;48.922;2.346;2023-01-27T11:56:20;102243.31;;;6.03;64.73
62600;BME280;48671;48.922;2.346;2023-01-27T11:58:51;102244.16;;;6.01;64.64
62600;BME280;48671;48.922;2.346;2023-01-27T12:01:23;102226.84;;;5.86;64.94
62600;BME280;48671;48.922;2.346;2023-01-27T12:04:02;102245.03;;;5.97;65.01
62600;BME280;48671;48.922;2.346;2023-01-27T12:06:48;102233.72;;;5.82;64.93
62600;BME280;48671;48.922;2.346;2023-01-27T12:12:21;102257.09;;;6.01;65.30
62600;BME280;48671;48.922;2.346;2023-01-27T12:14:47;102245.91;;;6.02;65.49
62600;BME280;48671;48.922;2.346;2023-01-27T12:17:20;102245.88;;;5.96;65.33
62600;BME280;48671;48.922;2.346;2023-01-27T12:19:53;102238.16;;;5.99;64.96
62600;BME280;48671;48.922;2.346;2023-01-27T12:22:35;102237.28;;;6.04;65.26
62600;BME280;48671;48.922;2.346;2023-01-27T12:25:18;102211.38;;;5.92;65.25
62600;BME280;48671;48.922;2.346;2023-01-27T12:27:54;102236.44;;;6.04;65.20
62600;BME280;48671;48.922;2.346;2023-01-27T12:30:26;102238.19;;;6.09;65.05
62600;BME280;48671;48.922;2.346;2023-01-27T12:32:53;102237.31;;;6.06;65.53
62600;BME280;48671;48.922;2.346;2023-01-27T12:35:28;102217.44;;;5.94;65.42
62600;BME280;48671;48.922;2.346;2023-01-27T12:38:10;102229.53;;;6.04;65.34
62600;BME280;48671;48.922;2.346;2023-01-27T12:40:39;102219.13;;;5.89;65.46
62600;BME280;48671;48.922;2.346;2023-01-27T12:45:37;102232.13;;;6.03;65.32
62600;BME280;48671;48.922;2.346;2023-01-27T12:50:38;102209.72;;;5.99;65.32
62600;BME280;48671;48.922;2.346;2023-01-27T12:53:12;102202.81;;;5.93;65.68
62600;BME280;48671;48.922;2.346;2023-01-27T12:58:44;102230.41;;;6.08;65.53
62600;BME280;48671;48.922;2.346;2023-01-27T13:01:31;102219.19;;;6.04;65.09
62600;BME280;48671;48.922;2.346;2023-01-27T13:04:17;102222.66;;;6.08;65.41
62600;BME280;48671;48.922;2.346;2023-01-27T13:07:03;102224.34;;;6.01;65.75
62600;BME280;48671;48.922;2.346;2023-01-27T13:09:38;102215.75;;;6.01;65.78
62600;BME280;48671;48.922;2.346;2023-01-27T13:12:21;102207.13;;;5.96;65.44
62600;BME280;48671;48.922;2.346;2023-01-27T13:14:53;102206.19;;;5.87;65.75
62600;BME280;48671;48.922;2.346;2023-01-27T13:17:41;102223.50;;;5.96;66.19
62600;BME280;48671;48.922;2.346;2023-01-27T13:20:17;102218.38;;;6.05;66.20
62600;BME280;48671;48.922;2.346;2023-01-27T13:22:57;102208.78;;;5.91;65.71
62600;BME280;48671;48.922;2.346;2023-01-27T13:25:37;102209.63;;;5.91;65.70
62600;BME280;48671;48.922;2.346;2023-01-27T13:28:06;102210.59;;;5.99;65.92
62600;BME280;48671;48.922;2.346;2023-01-27T13:30:37;102199.31;;;5.86;65.80
62600;BME280;48671;48.922;2.346;2023-01-27T13:33:24;102216.59;;;5.94;65.99
62600;BME280;48671;48.922;2.346;2023-01-27T13:41:45;102206.22;;;5.92;66.01
62600;BME280;48671;48.922;2.346;2023-01-27T13:44:44;102202.75;;;5.92;65.72
62600;BME280;48671;48.922;2.346;2023-01-27T13:47:22;102202.75;;;5.90;64.81
62600;BME280;48671;48.922;2.346;2023-01-27T13:50:17;102217.47;;;5.96;64.55
62600;BME280;48671;48.922;2.346;2023-01-27T13:52:52;102227.81;;;6.08;65.36
62600;BME280;48671;48.922;2.346;2023-01-27T13:55:41;102218.38;;;6.08;64.38
62600;BME280;48671;48.922;2.346;2023-01-27T14:04:03;102220.97;;;6.08;64.62
62600;BME280;48671;48.922;2.346;2023-01-27T14:06:59;102196.78;;;5.93;64.44
62600;BME280;48671;48.922;2.346;2023-01-27T14:09:47;102237.28;;;6.03;64.10
62600;BME280;48671;48.922;2.346;2023-01-27T14:12:39;102234.69;;;6.01;63.88
62600;BME280;48671;48.922;2.346;2023-01-27T14:15:17;102229.47;;;5.92;63.70
62600;BME280;48671;48.922;2.346;2023-01-27T14:17:56;102214.78;;;5.88;63.99
62600;BME280;48671;48.922;2.346;2023-01-27T14:20:29;102233.81;;;5.98;64.01
62600;BME280;48671;48.922;2.346;2023-01-27T14:26:14;102240.75;;;6.03;64.44
62600;BME280;48671;48.922;2.346;2023-01-27T14:28:53;102239.88;;;6.04;64.68
62600;BME280;48671;48.922;2.346;2023-01-27T14:36:58;102245.88;;;5.96;65.34
62600;BME280;48671;48.922;2.346;2023-01-27T14:39:45;102246.75;;;5.96;65.13
62600;BME280;48671;48.922;2.346;2023-01-27T14:42:31;102267.41;;;5.96;65.85
62600;BME280;48671;48.922;2.346;2023-01-27T14:50:21;102271.69;;;5.93;65.52
62600;BME280;48671;48.922;2.346;2023-01-27T14:55:41;102272.56;;;5.96;65.63
62600;BME280;48671;48.922;2.346;2023-01-27T15:11:40;102297.47;;;5.90;65.84
62600;BME280;48671;48.922;2.346;2023-01-27T15:15:01;102293.19;;;5.89;65.31
62600;BME280;48671;48.922;2.346;2023-01-27T15:29:36;102301.78;;;5.89;65.67
62600;BME280;48671;48.922;2.346;2023-01-27T15:34:43;102288.78;;;5.77;65.52
62600;BME280;48671;48.922;2.346;2023-01-27T15:43:13;102328.47;;;5.91;65.62
62600;BME280;48671;48.922;2.346;2023-01-27T15:45:47;102310.31;;;5.82;65.58
62600;BME280;48671;48.922;2.346;2023-01-27T15:48:55;102319.81;;;5.83;65.56
62600;BME280;48671;48.922;2.346;2023-01-27T15:51:26;102327.63;;;5.91;65.82
62600;BME280;48671;48.922;2.346;2023-01-27T15:54:03;102331.13;;;5.93;65.80
62600;BME280;48671;48.922;2.346;2023-01-27T15:56:43;102304.28;;;5.78;65.71
62600;BME280;48671;48.922;2.346;2023-01-27T15:59:17;102315.50;;;5.82;65.41
62600;BME280;48671;48.922;2.346;2023-01-27T16:02:00;102305.94;;;5.69;65.65
62600;BME280;48671;48.922;2.346;2023-01-27T16:05:21;102316.28;;;5.70;65.71
62600;BME280;48671;48.922;2.346;2023-01-27T16:08:40;102323.22;;;5.76;65.51
62600;BME280;48671;48.922;2.346;2023-01-27T16:19:17;102338.75;;;5.79;65.72
62600;BME280;48671;48.922;2.346;2023-01-27T16:21:59;102337.84;;;5.77;65.70
62600;BME280;48671;48.922;2.346;2023-01-27T16:28:04;102331.72;;;5.66;65.77
62600;BME280;48671;48.922;2.346;2023-01-27T16:31:03;102358.50;;;5.78;65.49
62600;BME280;48671;48.922;2.346;2023-01-27T16:33:38;102361.09;;;5.78;65.65
62600;BME280;48671;48.922;2.346;2023-01-27T16:38:43;102360.25;;;5.76;65.64
62600;BME280;48671;48.922;2.346;2023-01-27T16:41:59;102352.44;;;5.70;66.13
62600;BME280;48671;48.922;2.346;2023-01-27T16:44:49;102362.78;;;5.75;64.95
62600;BME280;48671;48.922;2.346;2023-01-27T16:47:26;102377.47;;;5.77;65.30
62600;BME280;48671;48.922;2.346;2023-01-27T16:49:53;102365.38;;;5.75;65.99
62600;BME280;48671;48.922;2.346;2023-01-27T16:52:31;102372.28;;;5.76;65.39
62600;BME280;48671;48.922;2.346;2023-01-27T16:54:58;102377.47;;;5.82;65.85
62600;BME280;48671;48.922;2.346;2023-01-27T16:57:33;102380.97;;;5.85;66.17
62600;BME280;48671;48.922;2.346;2023-01-27T17:00:18;102386.97;;;5.84;65.74
62600;BME280;48671;48.922;2.346;2023-01-27T17:02:44;102378.28;;;5.75;65.60
62600;BME280;48671;48.922;2.346;2023-01-27T17:05:15;102386.94;;;5.78;65.92
62600;BME280;48671;48.922;2.346;2023-01-27T17:08:09;102391.28;;;5.82;65.32
62600;BME280;48671;48.922;2.346;2023-01-27T17:10:40;102377.47;;;5.76;65.50
62600;BME280;48671;48.922;2.346;2023-01-27T17:13:24;102379.13;;;5.69;65.84
62600;BME280;48671;48.922;2.346;2023-01-27T17:15:50;102392.06;;;5.74;65.44
62600;BME280;48671;48.922;2.346;2023-01-27T17:18:17;102401.59;;;5.81;65.93